עמוד ראשי
METAR-TAF:

METAR-TAF

שדות תעופה :

Unalakleet, אלסקה, ארצות הברית

קו רוחב: 63-53N, קו אורך: 160-48W, גובה: 6מטר

תצפית מזג אוויר נוכחית

הדו"ח נערך לפני 25דקות, בשעה 18:56 UTC
רוח 5קשר מכיוון מזרח
טמפרטורת 17 צלסיוס
לחות 55%
לחץ 1017 hPa
ראות: 16.1קילומטר
שמיים נקיים

METAR: PAUN 201856Z AUTO 10005KT 10SM CLR 17/08 A3003 RMK AO2 SLP174 T01670083

זמן: 11:21 (19:21 UTC)

תחזית

הדו"ח נערך לפני 1 שעות ו 51דקות, בשעה 17:30 UTC
תחזית בתוקף מ 20 ב 18 UTC עד 21 ב 18 UTC
רוח 8קשר מכיוון מזרח
ראות: 10קילומטר
מעונן בגובה 8000רגל
מ 20 ב 2100UTC
רוח 10קשר מכיוון מערב/צפון-מערב
ראות: 10קילומטר
עננים פזורים בגובה 8000רגל

TAF: PAUN 201730Z 2018/2118 10008KT P6SM OVC080 FM202100 30010KT P6SM SCT080

תצפיות ותחזיות מזג אוויר לגבי יותר מ- 4,000 שדות תעופה ברחבי העולם. דוחות METAR ו- TAF.

התחנות הזמינות מסומנות בנקודות צהובות ואדומות על גבי המפה.

העבר את העכבר לנקודה הצבעונית על מנת לראות את שם התחנה.

לאחר מכן, לחץ כדי לראות את תוכן ואת תחזיות מזג האוויר.

כדי לשנות את המפה: לחץ על הכפתורים הירוקים עם הפלוס השחור כדי להתקרב; על הכפתור הירוק עם המקף כדי להתרחק; או בחיצים הירוקים למפות סמוכות.


METAR-TAF: